Terminal Aerodrome Forecast
Issued by NWS

Home | Current Version | Previous Version | Text Only | Print | Product List | Glossary On
Versions: 1 2 3 4 5 6 7 8 9 10 11 12
526
FTUS43 KJKL 271120
TAFSME
TAF
KSME 271120Z 2712/2812 18008KT P6SM OVC070
     FM271300 21009KT P6SM VCSH OVC025
     FM271900 24011KT P6SM BKN035
     FM272200 26010KT P6SM BKN100
     FM272300 26009KT P6SM SCT150
     FM281000 00000KT P6SM FEW130=

USA.gov is the U.S. government's official web portal to all federal, state and local government web resources and services.